• Join FlightAware (Why Join?)
  • Login
  • US Flag 
10:18PM EDT


 

Airport Tracker/Info


-or-


 

Live Flight TrackerFlight Track Log ✈ DAL268 ✈ 25-Oct-2013 ✈ KSFO - KJFK

Flight Track Log - Related Links

Times and Time Zones

All times are in EDT time to prevent confusion due to time zone crossing. See the DAL268 flight status page for this flight to view local times or setup timezone preferences in your user account.

Time Position Orientation Groundspeed Altitude Reporting Facility
EDT Latitude Longitude Course Direction KTS MPH feet Rate Location/Type
02:41PM 37.6252 -122.3690 28° Northeast 168 193  Level FlightAware ADS-B
02:42PM 37.6318 -122.3640 31° Northeast 165 190 500 3,000 Climbing FlightAware ADS-B
02:42PM 37.6345 -122.3620 30° Northeast 168 193 700 1,980 Climbing FlightAware ADS-B
02:42PM 37.6385 -122.3570 45° Northeast 172 198 900 1,860 Climbing FlightAware ADS-B
02:42PM 37.6469 -122.3450 49° Northeast 191 220 1,400 1,740 Climbing FlightAware ADS-B
02:42PM 37.6567 -122.3310 49° Northeast 208 239 1,800 1,740 Climbing FlightAware ADS-B
02:43PM 37.6670 -122.3170 47° Northeast 229 264 2,300 1,920 Climbing FlightAware ADS-B
02:43PM 37.6797 -122.2990 48° Northeast 249 287 2,800 2,220 Climbing FlightAware ADS-B
02:43PM 37.6924 -122.2820 47° Northeast 261 300 3,500 2,760 Climbing FlightAware ADS-B
02:43PM 37.7053 -122.2640 48° Northeast 266 306 4,300 3,000 Climbing FlightAware ADS-B
02:44PM 37.7280 -122.2330 47° Northeast 276 318 5,600 3,000 Climbing FlightAware ADS-B
02:44PM 37.7531 -122.1990 47° Northeast 286 329 7,000 3,000 Climbing FlightAware ADS-B
02:45PM 37.7675 -122.1800 46° Northeast 290 334 7,800 3,060 Climbing FlightAware ADS-B
02:45PM 37.7834 -122.1580 48° Northeast 294 338 8,700 3,120 Climbing FlightAware ADS-B
02:45PM 37.8001 -122.1350 47° Northeast 293 337 9,700 2,280 Climbing FlightAware ADS-B
02:45PM 37.8189 -122.1080 49° Northeast 317 365 10,200 1,260 Climbing FlightAware ADS-B
02:46PM 37.8216 -122.1040 49° Northeast 322 371 10,200 600 Level FlightAware ADS-B
02:46PM 37.8276 -122.0910 60° Northeast 332 382 10,300 1,200 Climbing FlightAware ADS-B
02:46PM 37.8381 -122.0570 69° East 352 405 10,700 1,320 Climbing FlightAware ADS-B
02:46PM 37.8536 -121.9980 72° East 376 433 11,400 1,680 Climbing FlightAware ADS-B
02:47PM 37.8701 -121.9250 74° East 395 455 12,500 2,280 Climbing FlightAware ADS-B
02:48PM 37.8879 -121.8460 74° East 403 464 14,000 2,460 Climbing FlightAware ADS-B
02:48PM 37.9043 -121.7740 74° East 410 472 15,300 2,280 Climbing FlightAware ADS-B
02:49PM 37.9200 -121.7040 74° East 417 480 16,400 2,100 Climbing FlightAware ADS-B
02:49PM 37.9360 -121.6320 74° East 424 488 17,400 1,800 Climbing FlightAware ADS-B
02:50PM 37.9533 -121.5550 74° East 438 504 18,300 1,740 Climbing FlightAware ADS-B
02:51PM 37.9849 -121.4120 74° East 451 519 20,000 1,800 Climbing FlightAware ADS-B
02:51PM 38.0060 -121.3170 74° East 459 528 21,200 1,860 Climbing FlightAware
02:52PM 38.0250 -121.2290 75° East 461 531 22,300 1,680 Climbing FlightAware
02:53PM 38.0530 -121.1040 74° East 474 545 23,500 1,440 Climbing FlightAware
02:53PM 38.0750 -121.0020 75° East 481 554 24,400 1,380 Climbing FlightAware
02:54PM 38.0960 -120.9120 73° East 486 559 25,200 1,440 Climbing FlightAware
02:54PM 38.1180 -120.8240 72° East 491 565 26,000 1,380 Climbing FlightAware
02:55PM 38.1460 -120.7080 73° East 497 572 26,900 1,140 Climbing FlightAware
02:55PM 38.1680 -120.6170 73° East 503 579 27,400 1,020 Climbing FlightAware
02:56PM 38.1890 -120.5280 73° East 507 583 28,000 1,380 Climbing FlightAware
02:57PM 38.2280 -120.3640 73° East 506 582 29,500 1,380 Climbing FlightAware
02:58PM 38.2796 -120.1443 73° East 506 582 31,200 1,320 Climbing FlightAware ADS-B (KAHC)
02:59PM 38.3020 -120.0510 73° East 506 582 31,900 1,260 Climbing FlightAware
02:59PM 38.3046 -120.0371 76° East 507 583 32,000 1,260 Climbing FlightAware ADS-B (KAHC)
02:59PM 38.3260 -119.9460 73° East 506 582 32,700 1,140 Climbing FlightAware
03:00PM 38.3470 -119.8530 74° East 506 582 33,300 1,080 Climbing FlightAware
03:01PM 38.3690 -119.7610 73° East 505 581 33,900 1,200 Climbing FlightAware
03:01PM 38.3865 -119.6837 74° East 504 580 34,500 1,080 Climbing FlightAware ADS-B (KAHC)
03:01PM 38.4069 -119.5944 74° East 504 580 35,000 360 Climbing FlightAware ADS-B (KAHC)
03:02PM 38.4360 -119.4666 74° East 498 573 35,000  Level FlightAware ADS-B (KAHC)
03:03PM 38.4576 -119.3716 74° East 498 573 35,000  Level FlightAware ADS-B (KAHC)
03:04PM 38.4867 -119.2424 74° East 499 574 35,000  Level FlightAware ADS-B (KAHC)
03:04PM 38.5027 -119.1580 76° East 501 577 35,000  Level FlightAware ADS-B (KAHC)
03:05PM 38.5189 -119.0211 81° East 504 580 35,000  Level FlightAware ADS-B (KAHC)
03:05PM 38.5278 -118.9309 83° East 507 583 35,000  Level FlightAware ADS-B (KAHC)
03:06PM 38.5450 -118.7580 83° East 508 585 35,000 60 Level FlightAware
03:07PM 38.5560 -118.6410 83° East 508 585 35,100 840 Climbing FlightAware
03:07PM 38.5640 -118.5590 83° East 495 570 36,000 1,620 Climbing FlightAware
03:08PM 38.5740 -118.4510 83° East 487 560 36,900 720 Climbing FlightAware
03:09PM 38.5860 -118.3320 83° East 481 554 37,000 60 Climbing FlightAware
03:09PM 38.5960 -118.2230 83° East 477 549 37,000  Level FlightAware
03:10PM 38.6050 -118.1260 83° East 477 549 37,000  Level FlightAware
03:11PM 38.6140 -118.0330 83° East 478 550 37,000  Level FlightAware
03:11PM 38.6270 -117.8970 83° East 478 550 37,000  Level FlightAware
03:12PM 38.6350 -117.8060 84° East 478 550 37,000  Level FlightAware
03:13PM 38.6440 -117.7200 82° East 478 550 37,000  Level FlightAware
03:13PM 38.6520 -117.6320 83° East 478 550 37,000  Level FlightAware
03:14PM 38.6630 -117.5170 83° East 478 550 37,000  Level FlightAware
03:15PM 38.6710 -117.4310 83° East 478 550 37,000  Level FlightAware
03:15PM 38.6800 -117.3450 82° East 478 550 37,000  Level FlightAware
03:16PM 38.6880 -117.2570 83° East 478 550 37,000  Level FlightAware
03:17PM 38.6960 -117.1710 83° East 478 550 37,000  Level FlightAware
03:17PM 38.7040 -117.0870 83° East 478 550 37,000  Level FlightAware
03:18PM 38.7130 -117.0010 82° East 478 550 37,000  Level FlightAware
03:18PM 38.7180 -116.9440 84° East 478 550 37,000  Level FlightAware
03:19PM 38.7350 -116.7670 83° East 478 550 37,000  Level FlightAware
03:20PM 38.7430 -116.6850 83° East 478 550 37,000  Level FlightAware
03:21PM 38.7510 -116.5990 83° East 478 550 37,000  Level FlightAware
03:22PM 38.8461 -116.1561 83° East 480 552 37,000  Level Salt Lake Center
03:23PM 38.8689 -115.9889 80° East 476 548 37,000  Level Salt Lake Center
03:24PM 38.8917 -115.8219 80° East 474 545 37,000  Level Salt Lake Center
03:25PM 38.9147 -115.6544 80° East 477 549 37,000  Level Salt Lake Center
03:26PM 38.9383 -115.4867 80° East 477 549 37,000  Level Salt Lake Center
03:27PM 38.9664 -115.2853 80° East 479 551 37,000  Level Salt Lake Center
03:28PM 38.9894 -115.1167 80° East 480 552 37,000  Level Salt Lake Center
03:29PM 39.0117 -114.9492 80° East 477 549 37,000  Level Salt Lake Center
03:30PM 39.0325 -114.7817 81° East 476 548 37,000  Level Salt Lake Center
03:36PM 39.1575 -113.7738 81° East 469 540 37,000  Level FlightAware ADS-B
03:37PM 39.1804 -113.5814 81° East 468 539 37,000  Level FlightAware ADS-B
03:38PM 39.1990 -113.4240 81° East 468 539 37,000  Level FlightAware
03:39PM 39.2121 -113.3099 82° East 468 539 37,000  Level FlightAware ADS-B
03:40PM 39.2430 -113.0400 82° East 468 539 37,000  Level FlightAware ADS-B
03:41PM 39.2523 -112.9570 82° East 469 540 37,000  Level FlightAware ADS-B
03:41PM 39.2617 -112.8730 82° East 469 540 37,000  Level FlightAware ADS-B
03:42PM 39.2718 -112.7819 82° East 469 540 37,000  Level FlightAware ADS-B
03:42PM 39.2733 -112.7680 82° East 469 540 37,000  Level FlightAware ADS-B
03:43PM 39.2838 -112.6741 82° East 468 539 37,000  Level FlightAware ADS-B
03:43PM 39.2841 -112.6710 82° East 468 539 37,000  Level FlightAware ADS-B
03:43PM 39.2934 -112.5860 82° East 467 537 37,000  Level FlightAware ADS-B
03:44PM 39.2998 -112.5325 81° East 466 536 37,000  Level FlightAware ADS-B
03:44PM 39.3038 -112.5040 80° East 466 536 37,000  Level FlightAware ADS-B
03:44PM 39.3177 -112.4220 78° East 464 534 37,000  Level FlightAware ADS-B
03:45PM 39.3334 -112.3380 76° East 463 533 37,000  Level FlightAware ADS-B
03:45PM 39.3368 -112.3199 76° East 463 533 37,000  Level FlightAware ADS-B
03:45PM 39.3489 -112.2560 76° East 462 532 37,000  Level FlightAware ADS-B
03:45PM 39.3522 -112.2383 77° East 462 532 37,000  Level FlightAware ADS-B
03:46PM 39.3640 -112.1750 76° East 462 532 37,000  Level FlightAware ADS-B
03:46PM 39.3654 -112.1677 77° East 462 532 37,000  Level FlightAware ADS-B
03:46PM 39.3800 -112.0890 76° East 462 532 37,000  Level FlightAware ADS-B
03:47PM 39.3866 -112.0530 77° East 462 532 37,000  Level FlightAware ADS-B
03:47PM 39.3951 -112.0070 77° East 462 532 37,000  Level FlightAware ADS-B
03:47PM 39.4100 -111.9260 77° East 461 531 37,000  Level FlightAware ADS-B
03:47PM 39.4114 -111.9186 77° East 461 531 37,000  Level FlightAware ADS-B
03:48PM 39.4255 -111.8410 77° East 461 531 37,000  Level FlightAware ADS-B
03:48PM 39.4403 -111.7600 77° East 462 532 37,000  Level FlightAware ADS-B
03:49PM 39.4550 -111.6790 77° East 462 532 37,000  Level FlightAware ADS-B
03:49PM 39.4695 -111.5980 77° East 462 532 37,000  Level FlightAware ADS-B
03:50PM 39.4843 -111.5160 77° East 462 532 37,000  Level FlightAware ADS-B
03:50PM 39.4879 -111.4956 77° East 462 532 37,000  Level FlightAware ADS-B (KMTJ)
03:50PM 39.4990 -111.4340 77° East 462 532 37,000  Level FlightAware ADS-B
03:51PM 39.5030 -111.4110 77° East 462 532 37,000  Level FlightAware ADS-B (KMTJ)
03:51PM 39.5164 -111.3360 77° East 462 532 37,000  Level FlightAware ADS-B
03:51PM 39.5223 -111.3027 77° East 462 532 37,000  Level FlightAware ADS-B (KMTJ)
03:51PM 39.5314 -111.2520 77° East 462 532 37,000  Level FlightAware ADS-B
03:52PM 39.5414 -111.1949 77° East 461 531 37,000  Level FlightAware ADS-B (KMTJ)
03:52PM 39.5457 -111.1700 77° East 461 531 37,000  Level FlightAware ADS-B
03:52PM 39.5562 -111.1105 77° East 461 531 37,000  Level FlightAware ADS-B (KMTJ)
03:53PM 39.5600 -111.0880 78° East 461 531 37,000  Level FlightAware ADS-B
03:53PM 39.5697 -111.0336 77° East 461 531 37,000  Level FlightAware ADS-B (KMTJ)
03:53PM 39.5837 -110.9530 77° East 461 531 37,000  Level FlightAware ADS-B
03:53PM 39.5845 -110.9488 76° East 461 531 37,000  Level FlightAware ADS-B (KMTJ)
03:54PM 39.6032 -110.8405 77° East 461 531 37,000  Level FlightAware ADS-B (KMTJ)
03:55PM 39.6180 -110.7545 77° East 460 529 37,000  Level FlightAware ADS-B (KMTJ)
03:55PM 39.6319 -110.6737 77° East 460 529 37,000  Level FlightAware ADS-B (KMTJ)
03:56PM 39.6476 -110.5820 77° East 459 528 37,000  Level FlightAware ADS-B (KMTJ)
03:56PM 39.6613 -110.5015 77° East 459 528 37,000  Level FlightAware ADS-B (KMTJ)
03:57PM 39.6751 -110.4202 78° East 460 529 37,000  Level FlightAware ADS-B (KMTJ)
03:57PM 39.6880 -110.3433 78° East 460 529 37,000  Level FlightAware ADS-B (KMTJ)
03:58PM 39.7022 -110.2592 78° East 460 529 37,000  Level FlightAware ADS-B (KMTJ)
03:58PM 39.7200 -110.1519 78° East 460 529 37,000  Level FlightAware ADS-B (KMTJ)
03:59PM 39.7337 -110.0699 78° East 460 529 37,000  Level FlightAware ADS-B (KMTJ)
03:59PM 39.7509 -109.9653 78° East 460 529 37,000  Level FlightAware ADS-B (KMTJ)
04:00PM 39.7647 -109.8811 78° East 461 531 37,000  Level FlightAware ADS-B (KMTJ)
04:00PM 39.7777 -109.8017 78° East 460 529 37,000  Level FlightAware ADS-B (KMTJ)
04:01PM 39.7911 -109.7194 78° East 460 529 37,000  Level FlightAware ADS-B (KMTJ)
04:01PM 39.8042 -109.6387 78° East 460 529 37,000  Level FlightAware ADS-B (KMTJ)
04:02PM 39.8171 -109.5583 78° East 459 528 37,000  Level FlightAware ADS-B (KMTJ)
04:02PM 39.8300 -109.4783 78° East 460 529 37,000  Level FlightAware ADS-B (KMTJ)
04:03PM 39.8443 -109.3885 78° East 459 528 37,000  Level FlightAware ADS-B (KMTJ)
04:04PM 39.8569 -109.3094 78° East 460 529 37,000  Level FlightAware ADS-B (KMTJ)
04:04PM 39.8693 -109.2308 78° East 459 528 37,000  Level FlightAware ADS-B (KMTJ)
04:05PM 39.8824 -109.1479 78° East 459 528 37,000  Level FlightAware ADS-B (KMTJ)
04:05PM 39.8954 -109.0646 78° East 459 528 37,000  Level FlightAware ADS-B (KMTJ)
04:06PM 39.9120 -108.9579 78° East 459 528 37,000  Level FlightAware ADS-B (KMTJ)
04:06PM 39.9248 -108.8754 79° East 460 529 37,000  Level FlightAware ADS-B (KMTJ)
04:07PM 39.9373 -108.7946 79° East 460 529 37,000  Level FlightAware ADS-B (KMTJ)
04:07PM 39.9495 -108.7151 79° East 460 529 37,000  Level FlightAware ADS-B (KMTJ)
04:08PM 39.9621 -108.6321 79° East 461 531 37,000  Level FlightAware ADS-B (KMTJ)
04:08PM 39.9743 -108.5519 79° East 462 532 37,000  Level FlightAware ADS-B (KMTJ)
04:09PM 39.9870 -108.4678 79° East 463 533 37,000  Level FlightAware ADS-B (KMTJ)
04:09PM 39.9998 -108.3823 79° East 464 534 37,000  Level FlightAware ADS-B (KMTJ)
04:10PM 40.0121 -108.3000 79° East 463 533 37,000  Level FlightAware ADS-B (KMTJ)
04:10PM 40.0253 -108.2111 79° East 464 534 37,000  Level FlightAware ADS-B (KMTJ)
04:11PM 40.0374 -108.1296 79° East 465 535 37,000  Level FlightAware ADS-B (KMTJ)
04:11PM 40.0499 -108.0447 79° East 466 536 37,000  Level FlightAware ADS-B (KMTJ)
04:12PM 40.0625 -107.9638 79° East 468 539 37,000  Level FlightAware ADS-B (KMTJ)
04:12PM 40.0840 -107.8829 71° East 470 541 37,000  Level FlightAware ADS-B (KMTJ)
04:13PM 40.1124 -107.8048 65° Northeast 470 541 37,000  Level FlightAware ADS-B (KMTJ)
04:13PM 40.1402 -107.7324 63° Northeast 470 541 37,000  Level FlightAware ADS-B (KMTJ)
04:14PM 40.1693 -107.6567 63° Northeast 471 542 37,000  Level FlightAware ADS-B (KMTJ)
04:14PM 40.2007 -107.5746 63° Northeast 471 542 37,000  Level FlightAware ADS-B (KMTJ)
04:15PM 40.2302 -107.4966 64° Northeast 471 542 37,000  Level FlightAware ADS-B (KMTJ)
04:15PM 40.2580 -107.4229 64° Northeast 471 542 37,000  Level FlightAware ADS-B (KMTJ)
04:16PM 40.2881 -107.3428 64° Northeast 471 542 37,000  Level FlightAware ADS-B (KMTJ)
04:16PM 40.3138 -107.2740 64° Northeast 471 542 37,000  Level FlightAware ADS-B (KMTJ)
04:17PM 40.3661 -107.1339 64° Northeast 471 542 37,000  Level FlightAware ADS-B (KANK)
04:18PM 40.2823 -107.3580 244° Southwest 471 542 37,000  Level FlightAware ADS-B (KANK)
04:19PM 40.4590 -106.8850 64° Northeast 470 541 37,000  Level FlightAware
04:19PM 40.4890 -106.8020 65° Northeast 469 540 37,000  Level FlightAware
04:20PM 40.5410 -106.6610 64° Northeast 469 540 37,000  Level FlightAware
04:21PM 40.5640 -106.5980 64° Northeast 469 540 37,000  Level FlightAware ADS-B (KANK)
04:22PM 40.6534 -106.3528 64° Northeast 469 540 37,000  Level FlightAware ADS-B (KANK)
04:23PM 40.7105 -106.1950 64° Northeast 468 539 37,000  Level FlightAware ADS-B (KANK)
04:24PM 40.7510 -106.0830 64° Northeast 464 534 37,000  Level FlightAware
04:24PM 40.7630 -106.0492 65° Northeast 464 534 37,000  Level FlightAware ADS-B (KANK)
04:25PM 40.8270 -105.8690 65° Northeast 461 531 37,000  Level FlightAware
04:26PM 40.8530 -105.7980 64° Northeast 461 531 37,000  Level FlightAware
04:27PM 40.9070 -105.6450 65° Northeast 461 531 37,000  Level FlightAware
04:28PM 40.9680 -105.4720 65° Northeast 461 531 37,000  Level FlightAware
04:29PM 41.0250 -105.3100 65° Northeast 462 532 37,000  Level FlightAware
04:30PM 41.0760 -105.1630 65° Northeast 463 533 37,000  Level FlightAware
04:30PM 41.1020 -105.0900 65° Northeast 464 534 37,000  Level FlightAware
04:31PM 41.1320 -105.0020 66° East 466 536 37,000  Level FlightAware
04:32PM 41.1870 -104.8440 65° Northeast 469 540 37,000  Level FlightAware
04:33PM 41.2240 -104.7180 69° East 469 540 37,000  Level FlightAware
04:33PM 41.2420 -104.6450 72° East 469 540 37,000  Level FlightAware
04:34PM 41.2650 -104.5440 73° East 470 541 37,000  Level FlightAware
04:34PM 41.2860 -104.4550 73° East 470 541 37,000  Level FlightAware
04:35PM 41.3130 -104.3380 73° East 470 541 37,000  Level FlightAware
04:36PM 41.3400 -104.2250 72° East 470 541 37,000  Level FlightAware
04:36PM 41.3630 -104.1240 73° East 471 542 37,000  Level FlightAware
04:38PM 41.4050 -103.9420 73° East 473 544 37,000  Level FlightAware
04:38PM 41.4300 -103.8340 73° East 474 545 37,000  Level FlightAware
04:39PM 41.4710 -103.6510 73° East 476 548 37,000  Level FlightAware
04:40PM 41.4950 -103.5470 73° East 477 549 37,000  Level FlightAware
04:41PM 41.5190 -103.4390 73° East 479 551 37,000  Level FlightAware
04:41PM 41.5500 -103.3030 73° East 479 551 37,000  Level FlightAware
04:42PM 41.5760 -103.1840 74° East 480 552 37,000  Level FlightAware
04:43PM 41.6060 -103.0490 73° East 480 552 37,000  Level FlightAware
04:44PM 41.6430 -102.8860 73° East 480 552 37,000  Level FlightAware
04:44PM 41.6560 -102.8280 73° East 480 552 37,000  Level FlightAware
04:45PM 41.6890 -102.6700 74° East 481 554 37,000  Level FlightAware
04:46PM 41.7140 -102.5530 74° East 481 554 37,000  Level FlightAware
04:47PM 41.7680 -102.3000 74° East 482 555 37,000  Level FlightAware
04:47PM 41.7690 -102.2950 75° East 482 555 37,000  Level FlightAware
04:48PM 41.7960 -102.1700 74° East 482 555 37,000  Level FlightAware
04:49PM 41.8270 -102.0240 74° East 482 555 37,000  Level FlightAware
04:50PM 41.8400 -101.9620 74° East 482 555 37,000  Level FlightAware
04:50PM 41.8580 -101.8790 74° East 482 555 37,000  Level FlightAware
04:51PM 41.8760 -101.7910 75° East 482 555 37,000  Level FlightAware
04:51PM 41.8890 -101.7320 73° East 482 555 37,000  Level FlightAware
04:52PM 41.9080 -101.6440 74° East 482 555 37,000  Level FlightAware
04:52PM 41.9270 -101.5560 74° East 482 555 37,000  Level FlightAware
04:53PM 41.9580 -101.4090 74° East 482 555 37,000  Level FlightAware
04:54PM 41.9700 -101.3500 75° East 482 555 37,000  Level FlightAware
04:54PM 41.9890 -101.2620 74° East 482 555 37,000  Level FlightAware
04:55PM 42.0140 -101.1440 74° East 482 555 37,000  Level FlightAware
04:56PM 42.0340 -101.0540 73° East 482 555 37,000  Level FlightAware
04:56PM 42.0520 -100.9650 75° East 482 555 37,000  Level FlightAware
04:57PM 42.0710 -100.8770 74° East 482 555 37,000  Level FlightAware
04:57PM 42.0780 -100.8480 72° East 482 555 37,000  Level FlightAware
05:03PM 42.3191 -99.5243 76° East 483 556 37,000  Level FlightAware ADS-B
05:05PM 42.3640 -99.2798 76° East 485 558 37,000  Level FlightAware ADS-B
05:06PM 42.3770 -99.2087 76° East 486 559 37,000  Level FlightAware ADS-B
05:07PM 42.4340 -98.8930 76° East 487 560 37,000  Level FlightAware
05:08PM 42.4650 -98.7109 77° East 492 566 37,000  Level FlightAware ADS-B
05:09PM 42.4693 -98.6754 81° East 494 568 37,000  Level FlightAware ADS-B
05:10PM 42.4900 -98.2950 86° East 500 575 37,000  Level FlightAware
05:10PM 42.4930 -98.2380 86° East 500 575 37,000  Level FlightAware
05:11PM 42.4990 -98.1030 87° East 501 577 37,000  Level FlightAware
05:12PM 42.5066 -97.9331 86° East 503 579 37,000  Level FlightAware ADS-B
05:13PM 42.5150 -97.7350 87° East 503 579 37,000  Level FlightAware
05:14PM 42.5200 -97.6230 86° East 503 579 37,000  Level FlightAware
05:14PM 42.5240 -97.5230 87° East 504 580 37,000  Level FlightAware
05:15PM 42.5290 -97.4050 87° East 505 581 37,000  Level FlightAware
05:15PM 42.5330 -97.3110 87° East 505 581 37,000  Level FlightAware
05:16PM 42.5400 -97.1200 87° East 506 582 37,000  Level FlightAware
05:17PM 42.5440 -97.0170 87° East 507 583 37,000  Level FlightAware
05:17PM 42.5480 -96.9060 87° East 508 585 37,000  Level FlightAware
05:19PM 42.5571 -96.6395 87° East 513 590 37,000  Level FlightAware ADS-B
05:19PM 42.5610 -96.5310 87° East 512 589 37,000  Level FlightAware
05:20PM 42.5640 -96.4220 88° East 512 589 37,000  Level FlightAware
05:21PM 42.5700 -96.2330 87° East 514 592 37,000  Level FlightAware
05:22PM 42.5730 -96.1290 88° East 514 592 37,000  Level FlightAware
05:22PM 42.5760 -96.0090 88° East 514 592 37,000  Level FlightAware
05:23PM 42.5790 -95.9270 87° East 514 592 37,000  Level FlightAware
05:23PM 42.5830 -95.7540 88° East 515 593 37,000  Level FlightAware
05:24PM 42.5877 -95.5693 88° East 515 593 37,000  Level FlightAware ADS-B
05:25PM 42.5893 -95.5039 88° East 515 593 37,000  Level FlightAware ADS-B
05:26PM 42.5942 -95.2850 88° East 517 595 37,000  Level FlightAware ADS-B
05:27PM 42.5980 -95.1160 88° East 518 596 37,000  Level FlightAware
05:27PM 42.5998 -95.0081 89° East 517 595 37,000  Level FlightAware ADS-B
05:28PM 42.6030 -94.8440 88° East 515 593 37,000  Level FlightAware
05:29PM 42.6052 -94.7031 89° East 513 590 37,000  Level FlightAware ADS-B
05:30PM 42.6090 -94.4830 89° East 510 587 37,000  Level FlightAware
05:31PM 42.6110 -94.3420 89° East 510 587 37,000  Level FlightAware
05:32PM 42.6120 -94.1630 90° East 508 585 37,000  Level FlightAware
05:33PM 42.6140 -93.9720 89° East 508 585 37,000  Level FlightAware
05:34PM 42.6150 -93.7940 90° East 508 585 37,000  Level FlightAware
05:34PM 42.6150 -93.6960 90° East 508 585 37,000  Level FlightAware
05:35PM 42.6160 -93.5160 90° East 509 586 37,000  Level FlightAware
05:36PM 42.6170 -93.3510 89° East 509 586 37,000  Level FlightAware
05:36PM 42.6170 -93.2750 90° East 509 586 37,000  Level FlightAware
05:37PM 42.6170 -93.1100 90° East 509 586 37,000  Level FlightAware
05:38PM 42.6160 -92.9230 90° East 509 586 37,000  Level FlightAware
05:39PM 42.6135 -94.0137 270° West 509 586 37,000  Level FlightAware ADS-B
05:40PM 42.6150 -92.6190 89° East 509 586 37,000  Level FlightAware
05:41PM 42.6140 -92.4250 90° East 508 585 37,000  Level FlightAware
05:41PM 42.6140 -92.3430 90° East 508 585 37,000  Level FlightAware
05:42PM 42.6120 -92.1530 91° East 507 583 37,000  Level FlightAware
05:44PM 42.6097 -91.8988 91° East 506 582 37,000  Level FlightAware ADS-B
05:44PM 42.6080 -91.7820 91° East 505 581 37,000  Level FlightAware
05:45PM 42.6060 -91.6260 91° East 504 580 37,000  Level FlightAware
05:46PM 42.6040 -91.4540 91° East 504 580 37,000  Level FlightAware
05:47PM 42.6020 -91.3050 91° East 504 580 37,000  Level FlightAware
05:47PM 42.6026 -91.3685 271° West 504 580 37,000  Level FlightAware ADS-B
05:48PM 42.5971 -91.0477 91° East 505 581 37,000  Level FlightAware ADS-B
05:49PM 42.5920 -90.7850 91° East 506 582 37,000  Level FlightAware
05:50PM 42.5880 -90.5960 92° East 507 583 37,000  Level FlightAware
05:51PM 42.5896 -90.6765 272° West 507 583 37,000  Level FlightAware ADS-B
05:52PM 42.5820 -90.3420 92° East 507 583 37,000  Level FlightAware
05:53PM 42.5780 -90.1900 92° East 508 585 37,000  Level FlightAware
05:53PM 42.5750 -90.0760 92° East 509 586 37,000  Level FlightAware
05:54PM 42.5700 -89.8910 92° East 510 587 37,000  Level FlightAware
05:55PM 42.5640 -89.6990 92° East 511 588 37,000  Level FlightAware
05:56PM 42.5590 -89.5310 92° East 513 590 37,000  Level FlightAware
05:57PM 42.5550 -89.4190 93° East 513 590 37,000  Level FlightAware
05:58PM 42.5490 -89.2380 93° East 514 592 37,000  Level FlightAware
05:59PM 42.5420 -89.0280 93° East 517 595 37,000  Level FlightAware
06:00PM 42.5350 -88.8400 93° East 518 596 37,000  Level FlightAware
06:00PM 42.5320 -88.7620 93° East 519 597 37,000  Level FlightAware
06:01PM 42.5280 -88.6570 93° East 519 597 37,000  Level FlightAware
06:01PM 42.5240 -88.5500 93° East 520 598 37,000  Level FlightAware
06:02PM 42.5200 -88.4590 93° East 521 600 37,000  Level FlightAware
06:02PM 42.5130 -88.3010 93° East 522 601 37,000  Level FlightAware
06:03PM 42.5100 -88.2240 93° East 522 601 37,000  Level FlightAware
06:04PM 42.5010 -88.0110 93° East 522 601 37,000  Level FlightAware
06:05PM 42.5000 -87.8780 91° East 521 600 37,000  Level FlightAware
06:05PM 42.5000 -87.7780 90° East 521 600 37,000  Level FlightAware
06:06PM 42.4990 -87.5800 90° East 523 602 37,000  Level FlightAware
06:06PM 42.4990 -87.5270 90° East 523 602 37,000  Level FlightAware
06:07PM 42.4980 -87.3420 90° East 525 604 37,000  Level FlightAware
06:08PM 42.4970 -87.1630 90° East 525 604 37,000  Level FlightAware
06:09PM 42.4960 -86.9840 90° East 524 603 37,000  Level FlightAware
06:10PM 42.4950 -86.8440 91° East 522 601 37,000  Level FlightAware
06:10PM 42.4930 -86.7240 91° East 522 601 37,000  Level FlightAware
06:11PM 42.4920 -86.6260 91° East 521 600 37,000  Level FlightAware
06:11PM 42.4910 -86.5180 91° East 520 598 37,000  Level FlightAware
06:12PM 42.4880 -86.3370 91° East 519 597 37,000  Level FlightAware
06:13PM 42.4870 -86.2310 91° East 518 596 37,000  Level FlightAware
06:14PM 42.4840 -86.0290 91° East 517 595 37,000  Level FlightAware
06:15PM 42.4810 -85.8570 91° East 518 596 37,000  Level FlightAware
06:16PM 42.4770 -85.6740 92° East 518 596 37,000  Level FlightAware
06:17PM 42.4740 -85.5320 92° East 520 598 37,000  Level FlightAware
06:18PM 42.4700 -85.3360 92° East 521 600 37,000  Level FlightAware
06:18PM 42.4680 -85.2490 92° East 522 601 37,000  Level FlightAware
06:19PM 42.4640 -85.0900 92° East 524 603 37,000  Level FlightAware
06:20PM 42.4600 -84.9370 92° East 525 604 37,000  Level FlightAware
06:21PM 42.4540 -84.7380 92° East 522 601 37,000  Level FlightAware
06:21PM 42.4520 -84.6370 92° East 520 598 37,000  Level FlightAware
06:22PM 42.4460 -84.4510 92° East 518 596 37,000  Level FlightAware
06:23PM 42.4430 -84.3610 93° East 517 595 37,000  Level FlightAware
06:23PM 42.4380 -84.1910 92° East 515 593 37,000  Level FlightAware
06:24PM 42.4340 -84.0760 93° East 514 592 37,000  Level FlightAware
06:24PM 42.4310 -83.9840 92° East 514 592 37,000  Level FlightAware
06:25PM 42.4240 -83.8010 93° East 512 589 37,000  Level FlightAware
06:26PM 42.4220 -83.7320 92° East 512 589 37,000  Level FlightAware
06:27PM 42.4140 -83.5160 93° East 512 589 37,000  Level FlightAware
06:27PM 42.4120 -83.4700 93° East 512 589 37,000  Level FlightAware
06:28PM 42.4040 -83.2660 93° East 512 589 37,000  Level FlightAware
06:29PM 42.3970 -83.1060 93° East 513 590 37,000  Level FlightAware
06:30PM 42.3900 -82.9410 93° East 515 593 37,000  Level FlightAware
06:30PM 42.3850 -82.8370 94° East 515 593 37,000  Level FlightAware
06:31PM 42.3800 -82.7320 94° East 516 594 37,000  Level FlightAware
06:32PM 42.3730 -82.5580 93° East 517 595 37,000  Level FlightAware
06:33PM 42.3670 -82.3950 93° East 518 596 37,000  Level FlightAware
06:34PM 42.3590 -82.2010 93° East 519 597 37,000  Level FlightAware
06:35PM 42.3520 -82.0320 93° East 511 588 37,000  Level FlightAware
06:35PM 42.3480 -81.9580 94° East 503 579 37,000  Level FlightAware
06:36PM 42.3410 -81.7970 93° East 496 571 37,000  Level FlightAware
06:37PM 42.3350 -81.6510 93° East 487 560 37,000  Level FlightAware
06:38PM 42.3260 -81.4670 94° East 485 558 37,000  Level FlightAware
06:38PM 42.3210 -81.3730 94° East 485 558 37,000  Level FlightAware
06:39PM 42.3180 -81.2920 93° East 485 558 37,000  Level FlightAware
06:40PM 42.3090 -81.1310 94° East 483 556 37,000  Level FlightAware
06:41PM 42.3000 -80.9510 94° East 482 555 37,000  Level FlightAware
06:41PM 42.2930 -80.8190 94° East 481 554 37,000  Level FlightAware
06:42PM 42.2880 -80.7280 94° East 481 554 37,000  Level FlightAware
06:43PM 42.2800 -80.5800 94° East 481 554 37,000  Level FlightAware
06:43PM 42.2740 -80.4840 95° East 482 555 37,000  Level FlightAware
06:44PM 42.2660 -80.3340 94° East 484 557 37,000  Level FlightAware
06:45PM 42.2560 -80.1740 95° East 486 559 37,000  Level FlightAware
06:46PM 42.2460 -80.0110 95° East 488 562 37,000  Level FlightAware
06:47PM 42.2380 -79.8680 94° East 489 563 37,000  Level FlightAware
06:47PM 42.2300 -79.7540 95° East 490 564 37,000  Level FlightAware
06:48PM 42.2220 -79.6250 95° East 490 564 37,000  Level FlightAware
06:48PM 42.2180 -79.5570 95° East 491 565 37,000  Level FlightAware
06:49PM 42.2080 -79.4080 95° East 491 565 37,000  Level FlightAware
06:50PM 42.1970 -79.2500 95° East 493 567 37,000  Level FlightAware
06:51PM 42.1840 -79.1140 97° East 500 575 37,000  Level FlightAware
06:52PM 42.1420 -78.9330 107° East 524 603 37,000  Level FlightAware
06:52PM 42.1040 -78.7840 109° East 526 605 37,000  Level FlightAware
06:53PM 42.0660 -78.6330 109° East 514 592 37,000  Level FlightAware
06:54PM 42.0260 -78.4750 109° East 506 582 37,000  Level FlightAware
06:55PM 41.9840 -78.3130 109° East 499 574 37,000  Level FlightAware
06:56PM 41.9630 -78.2300 109° East 497 572 37,000  Level FlightAware
06:56PM 41.9300 -78.1020 109° East 498 573 37,000  Level FlightAware
06:57PM 41.8970 -77.9720 109° East 503 579 37,000  Level FlightAware
06:58PM 41.8630 -77.8460 110° East 508 585 37,000  Level FlightAware
06:58PM 41.8420 -77.7630 109° East 512 589 37,000  Level FlightAware
06:59PM 41.7990 -77.6000 109° East 520 598 37,000  Level FlightAware
07:00PM 41.7550 -77.4350 110° East 526 605 37,000  Level FlightAware
07:01PM 41.7110 -77.2730 110° East 527 606 37,000  Level FlightAware
07:02PM 41.6640 -77.0970 110° East 528 608 37,000  Level FlightAware
07:03PM 41.6170 -76.9240 110° East 527 606 37,000  Level FlightAware
07:03PM 41.5990 -76.8590 110° East 526 605 37,000  Level FlightAware
07:04PM 41.5470 -76.6660 110° East 526 605 37,000  Level FlightAware
07:05PM 41.5120 -76.5420 111° Southeast 526 605 37,000 -120 Level FlightAware
07:06PM 41.4760 -76.4100 110° East 522 601 36,900 -840 Descending FlightAware
07:06PM 41.4360 -76.2660 110° East 525 604 35,800 -1,800 Descending FlightAware
07:07PM 41.3990 -76.1350 111° Southeast 518 596 34,200 -2,640 Descending FlightAware
07:08PM 41.3540 -75.9750 110° East 517 595 31,500 -3,120 Descending FlightAware
07:09PM 41.3140 -75.8320 110° East 517 595 28,900 -3,360 Descending FlightAware
07:10PM 41.2710 -75.6860 111° Southeast 517 595 26,100 -2,760 Descending FlightAware
07:10PM 41.2290 -75.5580 114° Southeast 500 575 24,600 -1,860 Descending FlightAware
07:11PM 41.1810 -75.4120 114° Southeast 478 550 23,100 -1,140 Descending FlightAware
07:12PM 41.1500 -75.3220 115° Southeast 480 552 23,000 -120 Descending FlightAware
07:13PM 41.1000 -75.1730 114° Southeast 485 558 23,000 -240 Level FlightAware
07:13PM 41.0790 -75.1140 115° Southeast 489 563 22,700 -1,020 Descending FlightAware
07:14PM 41.0270 -74.9600 114° Southeast 471 542 21,700 -1,020 Descending FlightAware
07:15PM 40.9910 -74.8220 109° East 462 532 20,900 -960 Descending FlightAware
07:16PM 40.9750 -74.6860 99° East 452 520 20,100 -1,020 Descending FlightAware
07:17PM 40.9590 -74.5330 98° East 447 514 19,100 -600 Descending FlightAware
07:18PM 40.9410 -74.3670 98° East 446 513 19,000 -60 Descending FlightAware
07:18PM 40.9280 -74.2490 98° East 426 490 19,000  Level FlightAware
07:19PM 40.9071 -74.1246 102° East 364 419 19,000  Level FlightAware ADS-B
07:20PM 40.8958 -74.0958 117° Southeast 354 407 19,000  Level FlightAware ADS-B
07:20PM 40.8700 -74.0411 122° Southeast 351 404 19,000 -300 Level FlightAware ADS-B
07:21PM 40.8430 -73.9872 123° Southeast 347 399 18,700 -900 Descending FlightAware ADS-B
07:21PM 40.8277 -73.9573 124° Southeast 342 394 18,300 -1,440 Descending FlightAware ADS-B
07:21PM 40.7880 -73.9230 147° Southeast 330 380 17,500 -1,680 Descending FlightAware
07:22PM 40.7180 -73.9110 173° South 328 377 16,100 -1,740 Descending FlightAware
07:23PM 40.6590 -73.9020 173° South 326 375 15,100 -1,560 Descending FlightAware
07:24PM 40.5780 -73.8900 174° South 319 367 13,700 -1,560 Descending FlightAware
07:25PM 40.4910 -73.8760 173° South 310 357 12,200 -1,500 Descending FlightAware
07:26PM 40.4020 -73.8640 174° South 304 350 10,700 -1,500 Descending FlightAware
07:27PM 40.3350 -73.8500 171° South 303 349 9,500 -1,500 Descending FlightAware
07:27PM 40.3160 -73.8250 135° Southeast 297 342 9,000 -1,500 Descending FlightAware
07:27PM 40.3100 -73.8030 110° East 290 334 8,700 -1,380 Descending FlightAware
07:28PM 40.3180 -73.7520 78° East 277 319 8,000 -900 Descending FlightAware
07:28PM 40.3310 -73.7060 70° East 279 321 7,800 -240 Descending FlightAware
07:29PM 40.3390 -73.6730 72° East 280 322 7,800 -180 Level FlightAware
07:29PM 40.3500 -73.6330 70° East 275 316 7,700 -540 Descending FlightAware
07:29PM 40.3690 -73.6100 43° Northeast 261 300 7,400 -780 Descending FlightAware
07:30PM 40.3860 -73.6010 22° Northeast 256 295 7,200 -960 Descending FlightAware
07:30PM 40.4160 -73.5860 21° North 255 293 6,700 -540 Descending FlightAware
07:30PM 40.4420 -73.5730 21° North 254 292 6,800 120 Climbing FlightAware
07:31PM 40.4750 -73.5510 27° Northeast 258 297 6,800  Level FlightAware
07:31PM 40.5070 -73.5240 33° Northeast 255 293 6,800 -120 Level FlightAware
07:32PM 40.5310 -73.5040 32° Northeast 257 296 6,700 -600 Descending FlightAware
07:32PM 40.5480 -73.4900 32° Northeast 259 298 6,400 -1,080 Descending FlightAware
07:33PM 40.5730 -73.4700 31° Northeast 256 295 6,000 -1,020 Descending FlightAware
07:33PM 40.5970 -73.4500 32° Northeast 256 295 5,600 -1,020 Descending FlightAware
07:33PM 40.6150 -73.4340 34° Northeast 254 292 5,300 -840 Descending FlightAware
07:34PM 40.6330 -73.4200 31° Northeast 249 287 5,100 -540 Descending FlightAware
07:34PM 40.6630 -73.4060 19° North 220 253 4,900 -600 Descending FlightAware
07:34PM 40.6870 -73.4060 360° North 209 241 4,600 -840 Descending FlightAware
07:35PM 40.7050 -73.4060 360° North 201 231 4,300 -900 Descending FlightAware
07:35PM 40.7220 -73.4060 360° North 199 229 4,000 -960 Descending FlightAware
07:36PM 40.7480 -73.4050 North 199 229 3,500 -900 Descending FlightAware
07:36PM 40.7750 -73.4330 322° Northwest 176 203 3,000 -720 Descending FlightAware
07:37PM 40.7800 -73.4480 294° West 170 196 2,800 -540 Descending FlightAware
07:37PM 40.7890 -73.4770 292° West 160 184 2,600 -780 Descending FlightAware
07:37PM 40.7950 -73.4970 292° West 160 184 2,200 -900 Descending FlightAware
07:38PM 40.8040 -73.5290 290° West 163 188 1,800 -420 Descending FlightAware
07:39PM 40.8020 -73.5610 265° West 168 193 1,800  Level FlightAware
07:39PM 40.8000 -73.5810 262° West 166 191 1,800  Level FlightAware
07:39PM 40.7950 -73.6140 259° West 169 194 1,800  Level FlightAware
07:40PM 40.7850 -73.6310 232° Southwest 179 206 1,800  Level FlightAware
07:40PM 40.7790 -73.6400 229° Southwest 182 209 1,800 -180 Level FlightAware
07:40PM 40.7580 -73.6660 223° Southwest 184 212 1,700 -120 Descending FlightAware
07:41PM 40.7410 -73.6800 212° Southwest 173 199 1,700  Level FlightAware
07:41PM 40.7290 -73.6890 210° Southwest 167 192 1,700 -300 Level FlightAware
07:42PM 40.7120 -73.7020 210° Southwest 151 174 1,500 -840 Descending FlightAware
07:42PM 40.6970 -73.7150 213° Southwest 138 159 1,000 -960 Descending FlightAware
07:43PM 40.6790 -73.7280 209° Southwest 134 154 600 -780 Descending FlightAware
07:43PM 40.6660 -73.7380 210° Southwest 138 159 300 -720 Descending FlightAware
07:44PM 40.6470 -73.7540 213° Southwest 133 153 -540 Descending FlightAware
07:44PM 40.6390 -73.7600 210° Southwest 120 138  Level FlightAware